• Join FlightAware (Why Join?)
  • Login
  • US Flag 
10:46PM EDT


 

Airport Tracker/Info


-or-


 

Live Flight TrackerFlight Track Log ✈ N24WE ✈ 25-Oct-2013 ✈ KHPN - KMVY

Flight Track Log - Related Links

Times and Time Zones

All times are in EDT time to prevent confusion due to time zone crossing. See the N24WE flight status page for this flight to view local times or setup timezone preferences in your user account.

Time Position Orientation Groundspeed Altitude Reporting Facility
EDT Latitude Longitude Course Direction KTS MPH feet Rate Location/Type
09:04PM 41.1031 -73.6586 80° East 142 163 2,500  Level Boston Center
09:05PM 41.1044 -73.6006 88° East 149 171 2,600 60 Climbing Boston Center
09:06PM 41.1089 -73.5397 84° East 159 183 2,700 300 Climbing Boston Center
09:07PM 41.1144 -73.4797 83° East 163 188 3,300 540 Climbing Boston Center
09:08PM 41.1167 -73.4000 88° East 153 176 4,000 600 Climbing New York TRACON
09:09PM 41.1167 -73.3500 90° East 154 177 4,600 600 Climbing New York TRACON
09:10PM 41.1333 -73.3000 66° East 155 178 5,200 480 Climbing New York TRACON
09:11PM 41.1333 -73.2333 90° East 159 183 5,600 120 Climbing New York TRACON
09:12PM 41.1333 -73.1667 90° East 178 205 5,500  Descending New York TRACON
09:13PM 41.1500 -73.1167 66° East 177 204 5,600  Climbing New York TRACON
09:14PM 41.1667 -73.0500 72° East 178 205 5,600  Level New York TRACON
09:15PM 41.1667 -72.9833 90° East 177 204 5,600  Level New York TRACON
09:16PM 41.1833 -72.9167 72° East 184 212 5,600 -60 Level New York TRACON
09:17PM 41.1833 -72.8500 90° East 179 206 5,500 -60 Descending New York TRACON
09:18PM 41.2000 -72.7833 72° East 180 207 5,500  Level New York TRACON
09:19PM 41.2000 -72.7269 90° East 177 204 5,600  Climbing Boston Center
09:20PM 41.2061 -72.6603 83° East 180 207 5,600  Level Boston Center
09:21PM 41.2097 -72.5914 86° East 185 213 5,600  Level Boston Center
09:22PM 41.2150 -72.5247 84° East 183 211 5,600 -60 Level Boston Center
09:23PM 41.2186 -72.4558 86° East 185 213 5,500  Descending Boston Center
09:24PM 41.2217 -72.3858 87° East 188 216 5,600  Climbing Boston Center
09:25PM 41.2247 -72.3186 87° East 184 212 5,600 -120 Level Boston Center
09:26PM 41.2267 -72.3008 82° East 182 209 5,500  Descending Boston Center
09:26PM 41.2303 -72.2503 85° East 188 216 5,600  Climbing Boston Center
09:27PM 41.2289 -72.2300 95° East 191 220 5,500  Descending Boston Center
09:27PM 41.2314 -72.1814 86° East 187 215 5,600  Climbing Boston Center
09:28PM 41.2306 -72.1617 93° East 183 211 5,500  Descending Boston Center
09:28PM 41.2333 -72.1136 86° East 185 213 5,600  Climbing Boston Center
09:29PM 41.2333 -72.0969 90° East 182 209 5,500  Descending Boston Center
09:29PM 41.2378 -72.0456 83° East 186 214 5,600  Climbing Boston Center
09:30PM 41.2381 -72.0239 89° East 185 213 5,500 -120 Descending Boston Center
09:30PM 41.2453 -71.9672 80° East 179 206 5,500 -120 Level Boston Center
09:31PM 41.2456 -71.9578 88° East 179 206 5,400  Descending Boston Center
09:31PM 41.2492 -71.8992 85° East 182 209 5,500  Climbing Boston Center
09:32PM 41.2489 -71.8903 92° East 184 212 5,400 60 Descending Boston Center
09:33PM 41.2581 -71.8369 77° East 174 200 5,600 60 Climbing Boston Center
09:33PM 41.2583 -71.8250 88° East 173 199 5,500 -120 Descending Boston Center
09:34PM 41.2658 -71.7589 81° East 166 191 5,500  Level Boston Center
09:35PM 41.2717 -71.6894 84° East 177 204 5,500  Level Boston Center
09:36PM 41.2781 -71.6417 80° East 174 200 5,500  Level Boston Center
09:36PM 41.2783 -71.6258 89° East 174 200 5,500  Level Boston Center
09:37PM 41.2817 -71.5764 85° East 178 205 5,500 -120 Level Boston Center
09:37PM 41.2811 -71.5611 93° East 178 205 5,400  Descending Boston Center
09:38PM 41.2869 -71.5108 81° East 179 206 5,500 60 Climbing Boston Center
09:38PM 41.2867 -71.5028 93° East 176 203 5,500  Level Boston Center
09:39PM 41.2958 -71.4375 79° East 179 206 5,500  Level Boston Center
09:40PM 41.3028 -71.3817 81° East 179 206 5,500 -60 Level Boston Center
09:41PM 41.3108 -71.3117 81° East 178 205 5,400 -120 Descending Boston Center
09:42PM 41.3192 -71.2469 80° East 180 207 5,300 -360 Descending Boston Center
09:43PM 41.3306 -71.1817 77° East 183 211 4,700 -540 Descending Boston Center
09:44PM 41.3475 -71.1156 71° East 189 217 4,200 -480 Descending Boston Center
09:45PM 41.3644 -71.0481 71° East 181 208 3,800 -480 Descending Boston Center
09:46PM 41.3681 -70.9769 86° East 192 221 3,300 -540 Descending Boston Center
09:47PM 41.3683 -70.9064 90° East 193 222 2,800 -540 Descending Boston Center
09:48PM 41.3667 -70.8367 92° East 190 219 2,300 -420 Descending Boston Center
09:49PM 41.3681 -70.7697 88° East 182 209 2,000 -420 Descending Boston Center
09:50PM 41.3669 -70.7014 91° East 174 200 1,500 -540 Descending Boston Center
09:51PM 41.3669 -70.6514 90° East 138 159 1,000 -540 Descending Boston Center
09:52PM 41.3806 -70.6256 55° Northeast 99 114 400 -600 Descending Boston Center